sensor_id;sensor_type;location;lat;lon;timestamp;temperature;humidity
7822;DHT22;3956;50.558;9.678;2022-10-26T00:01:11;8.80;1.00
7822;DHT22;3956;50.558;9.678;2022-10-26T00:03:43;8.80;1.00
7822;DHT22;3956;50.558;9.678;2022-10-26T00:06:13;8.80;1.00
7822;DHT22;3956;50.558;9.678;2022-10-26T00:08:41;8.80;1.00
7822;DHT22;3956;50.558;9.678;2022-10-26T00:11:10;8.80;1.00
7822;DHT22;3956;50.558;9.678;2022-10-26T00:13:39;8.80;1.00
7822;DHT22;3956;50.558;9.678;2022-10-26T00:16:10;8.90;1.00
7822;DHT22;3956;50.558;9.678;2022-10-26T00:18:39;8.90;1.00
7822;DHT22;3956;50.558;9.678;2022-10-26T00:21:09;8.90;1.00
7822;DHT22;3956;50.558;9.678;2022-10-26T00:23:38;8.80;1.00
7822;DHT22;3956;50.558;9.678;2022-10-26T00:26:08;8.80;1.00
7822;DHT22;3956;50.558;9.678;2022-10-26T00:28:36;8.90;1.00
7822;DHT22;3956;50.558;9.678;2022-10-26T00:31:08;8.80;1.00
7822;DHT22;3956;50.558;9.678;2022-10-26T00:33:38;8.80;1.00
7822;DHT22;3956;50.558;9.678;2022-10-26T00:36:09;8.80;1.00
7822;DHT22;3956;50.558;9.678;2022-10-26T00:38:39;8.90;1.00
7822;DHT22;3956;50.558;9.678;2022-10-26T00:41:13;8.80;1.00
7822;DHT22;3956;50.558;9.678;2022-10-26T00:43:42;8.80;1.00
7822;DHT22;3956;50.558;9.678;2022-10-26T00:46:17;8.80;1.00
7822;DHT22;3956;50.558;9.678;2022-10-26T00:48:50;8.80;1.00
7822;DHT22;3956;50.558;9.678;2022-10-26T00:51:24;8.90;1.00
7822;DHT22;3956;50.558;9.678;2022-10-26T00:53:53;8.90;1.00
7822;DHT22;3956;50.558;9.678;2022-10-26T00:56:23;8.90;1.00
7822;DHT22;3956;50.558;9.678;2022-10-26T00:58:51;8.80;1.00
7822;DHT22;3956;50.558;9.678;2022-10-26T01:01:20;8.70;1.00
7822;DHT22;3956;50.558;9.678;2022-10-26T01:03:48;8.60;1.00
7822;DHT22;3956;50.558;9.678;2022-10-26T01:06:17;8.60;1.00
7822;DHT22;3956;50.558;9.678;2022-10-26T01:08:47;8.50;1.00
7822;DHT22;3956;50.558;9.678;2022-10-26T01:11:16;8.50;1.00
7822;DHT22;3956;50.558;9.678;2022-10-26T01:13:45;8.40;1.00
7822;DHT22;3956;50.558;9.678;2022-10-26T01:16:26;8.40;1.00
7822;DHT22;3956;50.558;9.678;2022-10-26T01:19:08;8.40;1.00
7822;DHT22;3956;50.558;9.678;2022-10-26T01:21:47;8.30;1.00
7822;DHT22;3956;50.558;9.678;2022-10-26T01:27:24;8.40;1.00
7822;DHT22;3956;50.558;9.678;2022-10-26T01:30:23;8.40;1.00
7822;DHT22;3956;50.558;9.678;2022-10-26T01:33:09;8.30;1.00
7822;DHT22;3956;50.558;9.678;2022-10-26T01:35:43;8.30;1.00
7822;DHT22;3956;50.558;9.678;2022-10-26T01:38:22;8.40;1.00
7822;DHT22;3956;50.558;9.678;2022-10-26T01:40:57;8.20;1.00
7822;DHT22;3956;50.558;9.678;2022-10-26T01:43:30;8.30;1.00
7822;DHT22;3956;50.558;9.678;2022-10-26T01:46:03;8.30;1.00
7822;DHT22;3956;50.558;9.678;2022-10-26T01:48:33;8.40;1.00
7822;DHT22;3956;50.558;9.678;2022-10-26T01:51:03;8.40;1.00
7822;DHT22;3956;50.558;9.678;2022-10-26T01:53:33;8.40;1.00
7822;DHT22;3956;50.558;9.678;2022-10-26T01:56:01;8.50;1.00
7822;DHT22;3956;50.558;9.678;2022-10-26T01:58:48;8.40;1.00
7822;DHT22;3956;50.558;9.678;2022-10-26T02:04:17;8.50;1.00
7822;DHT22;3956;50.558;9.678;2022-10-26T02:06:57;8.60;1.00
7822;DHT22;3956;50.558;9.678;2022-10-26T02:09:34;8.60;1.00
7822;DHT22;3956;50.558;9.678;2022-10-26T02:12:12;8.60;1.00
7822;DHT22;3956;50.558;9.678;2022-10-26T02:14:47;8.70;1.00
7822;DHT22;3956;50.558;9.678;2022-10-26T02:17:25;8.70;1.00
7822;DHT22;3956;50.558;9.678;2022-10-26T02:19:59;8.70;1.00
7822;DHT22;3956;50.558;9.678;2022-10-26T02:22:32;8.70;1.00
7822;DHT22;3956;50.558;9.678;2022-10-26T02:25:05;8.70;1.00
7822;DHT22;3956;50.558;9.678;2022-10-26T02:27:40;8.70;1.00
7822;DHT22;3956;50.558;9.678;2022-10-26T02:30:10;8.70;1.00
7822;DHT22;3956;50.558;9.678;2022-10-26T02:32:45;8.70;1.00
7822;DHT22;3956;50.558;9.678;2022-10-26T02:35:16;8.70;1.00
7822;DHT22;3956;50.558;9.678;2022-10-26T02:37:47;8.80;1.00
7822;DHT22;3956;50.558;9.678;2022-10-26T02:40:19;8.80;1.00
7822;DHT22;3956;50.558;9.678;2022-10-26T02:42:51;8.80;1.00
7822;DHT22;3956;50.558;9.678;2022-10-26T02:45:24;8.80;1.00
7822;DHT22;3956;50.558;9.678;2022-10-26T02:47:54;8.80;1.00
7822;DHT22;3956;50.558;9.678;2022-10-26T02:50:27;8.80;1.00
7822;DHT22;3956;50.558;9.678;2022-10-26T02:53:00;8.80;1.00
7822;DHT22;3956;50.558;9.678;2022-10-26T02:55:33;8.80;1.00
7822;DHT22;3956;50.558;9.678;2022-10-26T02:58:05;8.80;1.00
7822;DHT22;3956;50.558;9.678;2022-10-26T03:00:39;8.70;1.00
7822;DHT22;3956;50.558;9.678;2022-10-26T03:03:09;8.80;1.00
7822;DHT22;3956;50.558;9.678;2022-10-26T03:05:41;8.80;1.00
7822;DHT22;3956;50.558;9.678;2022-10-26T03:08:10;8.80;1.00
7822;DHT22;3956;50.558;9.678;2022-10-26T03:10:41;8.80;1.00
7822;DHT22;3956;50.558;9.678;2022-10-26T03:13:11;8.80;1.00
7822;DHT22;3956;50.558;9.678;2022-10-26T03:15:39;8.80;1.00
7822;DHT22;3956;50.558;9.678;2022-10-26T03:18:09;8.90;1.00
7822;DHT22;3956;50.558;9.678;2022-10-26T03:20:37;8.90;1.00
7822;DHT22;3956;50.558;9.678;2022-10-26T03:23:06;9.00;1.00
7822;DHT22;3956;50.558;9.678;2022-10-26T03:25:34;8.90;1.00
7822;DHT22;3956;50.558;9.678;2022-10-26T03:28:03;8.90;1.00
7822;DHT22;3956;50.558;9.678;2022-10-26T03:30:32;8.90;1.00
7822;DHT22;3956;50.558;9.678;2022-10-26T03:33:00;8.90;1.00
7822;DHT22;3956;50.558;9.678;2022-10-26T03:35:30;8.90;1.00
7822;DHT22;3956;50.558;9.678;2022-10-26T03:37:58;8.90;1.00
7822;DHT22;3956;50.558;9.678;2022-10-26T03:40:26;8.90;1.00
7822;DHT22;3956;50.558;9.678;2022-10-26T03:42:54;9.00;1.00
7822;DHT22;3956;50.558;9.678;2022-10-26T03:45:23;9.00;1.00
7822;DHT22;3956;50.558;9.678;2022-10-26T03:47:51;9.00;1.00
7822;DHT22;3956;50.558;9.678;2022-10-26T03:50:21;9.10;1.00
7822;DHT22;3956;50.558;9.678;2022-10-26T03:52:52;9.10;1.00
7822;DHT22;3956;50.558;9.678;2022-10-26T03:55:21;9.10;1.00
7822;DHT22;3956;50.558;9.678;2022-10-26T03:57:49;9.20;1.00
7822;DHT22;3956;50.558;9.678;2022-10-26T04:00:17;9.00;1.00
7822;DHT22;3956;50.558;9.678;2022-10-26T04:02:53;8.90;1.00
7822;DHT22;3956;50.558;9.678;2022-10-26T04:05:21;8.90;1.00
7822;DHT22;3956;50.558;9.678;2022-10-26T04:07:55;8.90;1.00
7822;DHT22;3956;50.558;9.678;2022-10-26T04:10:24;8.80;1.00
7822;DHT22;3956;50.558;9.678;2022-10-26T04:12:53;8.90;1.00
7822;DHT22;3956;50.558;9.678;2022-10-26T04:15:22;8.90;1.00
7822;DHT22;3956;50.558;9.678;2022-10-26T04:17:55;8.90;1.00
7822;DHT22;3956;50.558;9.678;2022-10-26T04:20:24;8.90;1.00
7822;DHT22;3956;50.558;9.678;2022-10-26T04:22:58;8.80;1.00
7822;DHT22;3956;50.558;9.678;2022-10-26T04:25:27;8.80;1.00
7822;DHT22;3956;50.558;9.678;2022-10-26T04:27:59;8.80;1.00
7822;DHT22;3956;50.558;9.678;2022-10-26T04:30:28;8.80;1.00
7822;DHT22;3956;50.558;9.678;2022-10-26T04:32:56;8.80;1.00
7822;DHT22;3956;50.558;9.678;2022-10-26T04:35:25;8.80;1.00
7822;DHT22;3956;50.558;9.678;2022-10-26T04:37:58;8.80;1.00
7822;DHT22;3956;50.558;9.678;2022-10-26T04:40:26;8.80;1.00
7822;DHT22;3956;50.558;9.678;2022-10-26T04:42:55;8.90;1.00
7822;DHT22;3956;50.558;9.678;2022-10-26T04:45:23;9.00;1.00
7822;DHT22;3956;50.558;9.678;2022-10-26T04:48:01;9.00;1.00
7822;DHT22;3956;50.558;9.678;2022-10-26T04:50:31;9.10;1.00
7822;DHT22;3956;50.558;9.678;2022-10-26T04:53:01;9.10;1.00
7822;DHT22;3956;50.558;9.678;2022-10-26T04:55:29;9.00;1.00
7822;DHT22;3956;50.558;9.678;2022-10-26T04:57:57;9.10;1.00
7822;DHT22;3956;50.558;9.678;2022-10-26T05:00:28;9.10;1.00
7822;DHT22;3956;50.558;9.678;2022-10-26T05:02:59;9.10;1.00
7822;DHT22;3956;50.558;9.678;2022-10-26T05:05:28;9.20;1.00
7822;DHT22;3956;50.558;9.678;2022-10-26T05:07:57;9.20;1.00
7822;DHT22;3956;50.558;9.678;2022-10-26T05:10:27;9.20;1.00
7822;DHT22;3956;50.558;9.678;2022-10-26T05:12:56;9.20;1.00
7822;DHT22;3956;50.558;9.678;2022-10-26T05:15:26;9.10;1.00
7822;DHT22;3956;50.558;9.678;2022-10-26T05:17:55;9.20;1.00
7822;DHT22;3956;50.558;9.678;2022-10-26T05:20:23;9.30;1.00
7822;DHT22;3956;50.558;9.678;2022-10-26T05:22:56;9.40;1.00
7822;DHT22;3956;50.558;9.678;2022-10-26T05:25:24;9.40;1.00
7822;DHT22;3956;50.558;9.678;2022-10-26T05:27:57;9.40;1.00
7822;DHT22;3956;50.558;9.678;2022-10-26T05:30:27;9.50;1.00
7822;DHT22;3956;50.558;9.678;2022-10-26T05:32:55;9.40;1.00
7822;DHT22;3956;50.558;9.678;2022-10-26T05:35:25;9.30;1.00
7822;DHT22;3956;50.558;9.678;2022-10-26T05:37:53;9.30;1.00
7822;DHT22;3956;50.558;9.678;2022-10-26T05:40:22;9.20;1.00
7822;DHT22;3956;50.558;9.678;2022-10-26T05:42:50;9.30;1.00
7822;DHT22;3956;50.558;9.678;2022-10-26T05:45:20;9.30;1.00
7822;DHT22;3956;50.558;9.678;2022-10-26T05:47:49;9.30;1.00
7822;DHT22;3956;50.558;9.678;2022-10-26T05:50:17;9.30;1.00
7822;DHT22;3956;50.558;9.678;2022-10-26T05:52:46;9.30;1.00
7822;DHT22;3956;50.558;9.678;2022-10-26T05:55:16;9.30;1.00
7822;DHT22;3956;50.558;9.678;2022-10-26T05:57:45;9.30;1.00
7822;DHT22;3956;50.558;9.678;2022-10-26T06:00:18;9.40;1.00
7822;DHT22;3956;50.558;9.678;2022-10-26T06:03:06;9.50;1.00
7822;DHT22;3956;50.558;9.678;2022-10-26T06:05:44;9.50;1.00
7822;DHT22;3956;50.558;9.678;2022-10-26T06:08:13;9.50;1.00
7822;DHT22;3956;50.558;9.678;2022-10-26T06:10:41;9.50;1.00
7822;DHT22;3956;50.558;9.678;2022-10-26T06:13:10;9.60;1.00
7822;DHT22;3956;50.558;9.678;2022-10-26T06:15:46;9.60;1.00
7822;DHT22;3956;50.558;9.678;2022-10-26T06:18:25;9.60;1.00
7822;DHT22;3956;50.558;9.678;2022-10-26T06:21:14;9.60;1.00
7822;DHT22;3956;50.558;9.678;2022-10-26T06:23:54;9.70;1.00
7822;DHT22;3956;50.558;9.678;2022-10-26T06:26:31;9.80;1.00
7822;DHT22;3956;50.558;9.678;2022-10-26T06:29:11;9.80;1.00
7822;DHT22;3956;50.558;9.678;2022-10-26T06:31:43;9.80;1.00
7822;DHT22;3956;50.558;9.678;2022-10-26T06:34:20;10.00;1.00
7822;DHT22;3956;50.558;9.678;2022-10-26T06:36:50;10.00;1.00
7822;DHT22;3956;50.558;9.678;2022-10-26T06:39:20;10.00;1.00
7822;DHT22;3956;50.558;9.678;2022-10-26T06:41:49;9.90;1.00
7822;DHT22;3956;50.558;9.678;2022-10-26T06:44:21;9.90;1.00
7822;DHT22;3956;50.558;9.678;2022-10-26T06:46:55;9.90;1.00
7822;DHT22;3956;50.558;9.678;2022-10-26T06:49:33;9.90;1.00
7822;DHT22;3956;50.558;9.678;2022-10-26T06:52:11;10.00;1.00
7822;DHT22;3956;50.558;9.678;2022-10-26T06:54:51;9.90;1.00
7822;DHT22;3956;50.558;9.678;2022-10-26T06:57:21;9.90;1.00
7822;DHT22;3956;50.558;9.678;2022-10-26T06:59:53;9.80;1.00
7822;DHT22;3956;50.558;9.678;2022-10-26T07:02:23;9.90;1.00
7822;DHT22;3956;50.558;9.678;2022-10-26T07:04:53;10.00;1.00
7822;DHT22;3956;50.558;9.678;2022-10-26T07:07:23;10.10;1.00
7822;DHT22;3956;50.558;9.678;2022-10-26T07:09:52;10.20;1.00
7822;DHT22;3956;50.558;9.678;2022-10-26T07:12:20;10.30;1.00
7822;DHT22;3956;50.558;9.678;2022-10-26T07:14:49;10.30;1.00
7822;DHT22;3956;50.558;9.678;2022-10-26T07:17:17;10.40;1.00
7822;DHT22;3956;50.558;9.678;2022-10-26T07:19:45;10.40;1.00
7822;DHT22;3956;50.558;9.678;2022-10-26T07:22:15;10.40;1.00
7822;DHT22;3956;50.558;9.678;2022-10-26T07:24:43;10.50;1.00
7822;DHT22;3956;50.558;9.678;2022-10-26T07:27:15;10.50;1.00
7822;DHT22;3956;50.558;9.678;2022-10-26T07:29:45;10.60;1.00
7822;DHT22;3956;50.558;9.678;2022-10-26T07:32:14;10.70;1.00
7822;DHT22;3956;50.558;9.678;2022-10-26T07:34:42;10.80;1.00
7822;DHT22;3956;50.558;9.678;2022-10-26T07:37:10;10.70;1.00
7822;DHT22;3956;50.558;9.678;2022-10-26T07:39:40;10.50;1.00
7822;DHT22;3956;50.558;9.678;2022-10-26T07:42:08;10.30;1.00
7822;DHT22;3956;50.558;9.678;2022-10-26T07:44:37;10.20;1.00
7822;DHT22;3956;50.558;9.678;2022-10-26T07:47:05;10.20;1.00
7822;DHT22;3956;50.558;9.678;2022-10-26T07:49:33;10.20;1.00
7822;DHT22;3956;50.558;9.678;2022-10-26T07:52:01;10.20;1.00
7822;DHT22;3956;50.558;9.678;2022-10-26T07:54:30;10.40;99.90
7822;DHT22;3956;50.558;9.678;2022-10-26T07:57:00;10.40;99.90
7822;DHT22;3956;50.558;9.678;2022-10-26T07:59:29;10.40;1.00
7822;DHT22;3956;50.558;9.678;2022-10-26T08:01:57;10.40;1.00
7822;DHT22;3956;50.558;9.678;2022-10-26T08:04:25;10.40;1.00
7822;DHT22;3956;50.558;9.678;2022-10-26T08:06:53;10.60;1.00
7822;DHT22;3956;50.558;9.678;2022-10-26T08:09:22;10.60;1.00
7822;DHT22;3956;50.558;9.678;2022-10-26T08:11:50;10.70;1.00
7822;DHT22;3956;50.558;9.678;2022-10-26T08:14:20;10.70;99.90
7822;DHT22;3956;50.558;9.678;2022-10-26T08:16:48;10.80;99.90
7822;DHT22;3956;50.558;9.678;2022-10-26T08:19:18;10.70;99.90
7822;DHT22;3956;50.558;9.678;2022-10-26T08:21:47;10.60;99.90
7822;DHT22;3956;50.558;9.678;2022-10-26T08:24:15;10.70;1.00
7822;DHT22;3956;50.558;9.678;2022-10-26T08:26:45;10.90;99.90
7822;DHT22;3956;50.558;9.678;2022-10-26T08:29:13;11.00;99.90
7822;DHT22;3956;50.558;9.678;2022-10-26T08:31:43;11.10;99.90
7822;DHT22;3956;50.558;9.678;2022-10-26T08:34:11;11.20;99.90
7822;DHT22;3956;50.558;9.678;2022-10-26T08:36:39;11.20;99.90
7822;DHT22;3956;50.558;9.678;2022-10-26T08:39:08;11.30;99.90
7822;DHT22;3956;50.558;9.678;2022-10-26T08:41:37;11.40;99.90
7822;DHT22;3956;50.558;9.678;2022-10-26T08:44:18;11.60;99.90
7822;DHT22;3956;50.558;9.678;2022-10-26T08:46:52;11.60;99.90
7822;DHT22;3956;50.558;9.678;2022-10-26T08:49:24;11.70;99.90
7822;DHT22;3956;50.558;9.678;2022-10-26T08:51:56;11.60;99.90
7822;DHT22;3956;50.558;9.678;2022-10-26T08:54:33;11.80;99.90
7822;DHT22;3956;50.558;9.678;2022-10-26T08:57:12;11.80;99.90
7822;DHT22;3956;50.558;9.678;2022-10-26T08:59:46;11.70;1.00
7822;DHT22;3956;50.558;9.678;2022-10-26T09:02:17;11.70;99.90
7822;DHT22;3956;50.558;9.678;2022-10-26T09:04:45;11.70;1.00
7822;DHT22;3956;50.558;9.678;2022-10-26T09:10:15;12.10;99.90
7822;DHT22;3956;50.558;9.678;2022-10-26T09:12:50;12.20;99.90
7822;DHT22;3956;50.558;9.678;2022-10-26T09:15:27;12.40;99.90
7822;DHT22;3956;50.558;9.678;2022-10-26T09:18:10;12.60;99.90
7822;DHT22;3956;50.558;9.678;2022-10-26T09:20:57;12.80;99.90
7822;DHT22;3956;50.558;9.678;2022-10-26T09:23:38;13.10;99.90
7822;DHT22;3956;50.558;9.678;2022-10-26T09:26:12;13.20;99.90
7822;DHT22;3956;50.558;9.678;2022-10-26T09:28:43;13.30;99.90
7822;DHT22;3956;50.558;9.678;2022-10-26T09:31:15;13.50;99.90
7822;DHT22;3956;50.558;9.678;2022-10-26T09:33:45;13.60;99.90
7822;DHT22;3956;50.558;9.678;2022-10-26T09:36:18;13.70;99.90
7822;DHT22;3956;50.558;9.678;2022-10-26T09:38:52;13.80;99.90
7822;DHT22;3956;50.558;9.678;2022-10-26T09:41:27;13.90;99.90
7822;DHT22;3956;50.558;9.678;2022-10-26T09:44:02;14.20;99.90
7822;DHT22;3956;50.558;9.678;2022-10-26T09:46:39;14.20;99.90
7822;DHT22;3956;50.558;9.678;2022-10-26T09:49:14;13.90;99.90
7822;DHT22;3956;50.558;9.678;2022-10-26T09:51:44;13.90;99.90
7822;DHT22;3956;50.558;9.678;2022-10-26T09:54:15;13.90;99.90
7822;DHT22;3956;50.558;9.678;2022-10-26T09:56:47;14.10;99.90
7822;DHT22;3956;50.558;9.678;2022-10-26T09:59:20;14.20;99.90
7822;DHT22;3956;50.558;9.678;2022-10-26T10:01:49;14.40;99.90
7822;DHT22;3956;50.558;9.678;2022-10-26T10:04:20;14.60;99.90
7822;DHT22;3956;50.558;9.678;2022-10-26T10:06:51;14.80;99.90
7822;DHT22;3956;50.558;9.678;2022-10-26T10:09:20;15.00;99.90
7822;DHT22;3956;50.558;9.678;2022-10-26T10:11:51;15.20;99.90
7822;DHT22;3956;50.558;9.678;2022-10-26T10:14:26;15.30;99.90
7822;DHT22;3956;50.558;9.678;2022-10-26T10:16:56;15.50;99.90
7822;DHT22;3956;50.558;9.678;2022-10-26T10:19:28;15.70;99.90
7822;DHT22;3956;50.558;9.678;2022-10-26T10:21:58;16.10;99.90
7822;DHT22;3956;50.558;9.678;2022-10-26T10:24:29;16.10;99.90
7822;DHT22;3956;50.558;9.678;2022-10-26T10:27:02;16.00;99.90
7822;DHT22;3956;50.558;9.678;2022-10-26T10:29:32;15.90;99.90
7822;DHT22;3956;50.558;9.678;2022-10-26T10:32:02;15.80;99.90
7822;DHT22;3956;50.558;9.678;2022-10-26T10:34:32;15.70;99.90
7822;DHT22;3956;50.558;9.678;2022-10-26T10:37:02;15.70;99.90
7822;DHT22;3956;50.558;9.678;2022-10-26T10:39:37;15.50;99.90
7822;DHT22;3956;50.558;9.678;2022-10-26T10:42:15;15.50;99.90
7822;DHT22;3956;50.558;9.678;2022-10-26T10:44:45;15.40;99.90
7822;DHT22;3956;50.558;9.678;2022-10-26T10:47:22;15.30;99.90
7822;DHT22;3956;50.558;9.678;2022-10-26T10:49:55;15.30;99.90
7822;DHT22;3956;50.558;9.678;2022-10-26T10:52:26;15.30;99.90
7822;DHT22;3956;50.558;9.678;2022-10-26T10:55:08;15.40;99.90
7822;DHT22;3956;50.558;9.678;2022-10-26T10:57:52;15.30;99.90
7822;DHT22;3956;50.558;9.678;2022-10-26T11:00:24;15.20;99.90
7822;DHT22;3956;50.558;9.678;2022-10-26T11:03:23;15.20;99.90
7822;DHT22;3956;50.558;9.678;2022-10-26T11:06:12;15.30;99.90
7822;DHT22;3956;50.558;9.678;2022-10-26T11:08:46;15.40;99.90
7822;DHT22;3956;50.558;9.678;2022-10-26T11:11:19;15.60;99.90
7822;DHT22;3956;50.558;9.678;2022-10-26T11:13:52;15.70;99.90
7822;DHT22;3956;50.558;9.678;2022-10-26T11:16:25;16.00;99.90
7822;DHT22;3956;50.558;9.678;2022-10-26T11:18:59;16.00;99.90
7822;DHT22;3956;50.558;9.678;2022-10-26T11:21:31;16.10;99.90
7822;DHT22;3956;50.558;9.678;2022-10-26T11:24:12;16.00;99.90
7822;DHT22;3956;50.558;9.678;2022-10-26T11:26:45;16.30;99.90
7822;DHT22;3956;50.558;9.678;2022-10-26T11:29:28;16.30;99.90
7822;DHT22;3956;50.558;9.678;2022-10-26T11:32:09;16.20;99.90
7822;DHT22;3956;50.558;9.678;2022-10-26T11:34:44;16.30;99.90
7822;DHT22;3956;50.558;9.678;2022-10-26T11:37:19;16.40;99.90
7822;DHT22;3956;50.558;9.678;2022-10-26T11:40:01;16.50;99.90
7822;DHT22;3956;50.558;9.678;2022-10-26T11:42:34;16.40;99.90
7822;DHT22;3956;50.558;9.678;2022-10-26T11:45:09;16.50;99.90
7822;DHT22;3956;50.558;9.678;2022-10-26T11:47:45;16.80;99.90
7822;DHT22;3956;50.558;9.678;2022-10-26T11:50:20;17.10;99.90
7822;DHT22;3956;50.558;9.678;2022-10-26T11:52:52;17.20;99.90
7822;DHT22;3956;50.558;9.678;2022-10-26T11:55:22;17.00;99.90
7822;DHT22;3956;50.558;9.678;2022-10-26T11:57:52;17.10;99.90
7822;DHT22;3956;50.558;9.678;2022-10-26T12:00:22;17.10;99.90
7822;DHT22;3956;50.558;9.678;2022-10-26T12:02:55;17.00;99.90
7822;DHT22;3956;50.558;9.678;2022-10-26T12:05:31;16.90;99.90
7822;DHT22;3956;50.558;9.678;2022-10-26T12:08:04;16.90;99.90
7822;DHT22;3956;50.558;9.678;2022-10-26T12:10:35;16.90;99.90
7822;DHT22;3956;50.558;9.678;2022-10-26T12:13:13;17.00;99.90
7822;DHT22;3956;50.558;9.678;2022-10-26T12:15:48;17.00;99.90
7822;DHT22;3956;50.558;9.678;2022-10-26T12:18:36;17.00;99.90
7822;DHT22;3956;50.558;9.678;2022-10-26T12:21:25;16.90;99.90
7822;DHT22;3956;50.558;9.678;2022-10-26T12:23:57;17.00;99.90
7822;DHT22;3956;50.558;9.678;2022-10-26T12:26:51;16.90;99.90
7822;DHT22;3956;50.558;9.678;2022-10-26T12:29:34;17.00;99.90
7822;DHT22;3956;50.558;9.678;2022-10-26T12:35:34;16.90;99.90
7822;DHT22;3956;50.558;9.678;2022-10-26T12:41:22;17.20;99.90
7822;DHT22;3956;50.558;9.678;2022-10-26T12:43:57;17.30;99.90
7822;DHT22;3956;50.558;9.678;2022-10-26T12:46:41;17.20;99.90
7822;DHT22;3956;50.558;9.678;2022-10-26T12:52:20;17.50;99.90
7822;DHT22;3956;50.558;9.678;2022-10-26T12:55:08;17.70;99.90
7822;DHT22;3956;50.558;9.678;2022-10-26T12:57:48;17.80;99.90
7822;DHT22;3956;50.558;9.678;2022-10-26T13:00:23;17.80;99.90
7822;DHT22;3956;50.558;9.678;2022-10-26T13:03:07;17.90;99.90
7822;DHT22;3956;50.558;9.678;2022-10-26T13:06:01;18.00;99.90
7822;DHT22;3956;50.558;9.678;2022-10-26T13:08:38;18.00;99.90
7822;DHT22;3956;50.558;9.678;2022-10-26T13:11:14;18.20;99.90
7822;DHT22;3956;50.558;9.678;2022-10-26T13:13:51;18.20;99.90
7822;DHT22;3956;50.558;9.678;2022-10-26T13:16:21;18.20;99.90
7822;DHT22;3956;50.558;9.678;2022-10-26T13:18:51;18.20;99.90
7822;DHT22;3956;50.558;9.678;2022-10-26T13:21:22;18.20;99.90
7822;DHT22;3956;50.558;9.678;2022-10-26T13:23:56;18.00;99.90
7822;DHT22;3956;50.558;9.678;2022-10-26T13:26:28;18.00;99.90
7822;DHT22;3956;50.558;9.678;2022-10-26T13:29:00;18.00;99.90
7822;DHT22;3956;50.558;9.678;2022-10-26T13:31:51;17.80;99.90
7822;DHT22;3956;50.558;9.678;2022-10-26T13:34:23;17.70;99.90
7822;DHT22;3956;50.558;9.678;2022-10-26T13:37:00;17.70;99.90
7822;DHT22;3956;50.558;9.678;2022-10-26T13:39:34;17.70;99.90
7822;DHT22;3956;50.558;9.678;2022-10-26T13:42:04;17.80;99.90
7822;DHT22;3956;50.558;9.678;2022-10-26T13:44:40;17.80;99.90
7822;DHT22;3956;50.558;9.678;2022-10-26T13:47:11;17.70;99.90
7822;DHT22;3956;50.558;9.678;2022-10-26T13:49:45;17.60;99.90
7822;DHT22;3956;50.558;9.678;2022-10-26T13:52:16;17.60;99.90
7822;DHT22;3956;50.558;9.678;2022-10-26T13:54:48;17.60;99.90
7822;DHT22;3956;50.558;9.678;2022-10-26T13:57:27;17.50;99.90
7822;DHT22;3956;50.558;9.678;2022-10-26T13:59:59;17.30;99.90
7822;DHT22;3956;50.558;9.678;2022-10-26T14:02:30;17.20;99.90
7822;DHT22;3956;50.558;9.678;2022-10-26T14:05:00;17.20;99.90
7822;DHT22;3956;50.558;9.678;2022-10-26T14:07:35;17.10;99.90
7822;DHT22;3956;50.558;9.678;2022-10-26T14:10:05;17.20;99.90
7822;DHT22;3956;50.558;9.678;2022-10-26T14:12:33;17.10;99.90
7822;DHT22;3956;50.558;9.678;2022-10-26T14:15:06;17.10;99.90
7822;DHT22;3956;50.558;9.678;2022-10-26T14:17:35;17.00;99.90
7822;DHT22;3956;50.558;9.678;2022-10-26T14:20:04;16.90;99.90
7822;DHT22;3956;50.558;9.678;2022-10-26T14:22:32;16.90;99.90
7822;DHT22;3956;50.558;9.678;2022-10-26T14:25:01;16.90;99.90
7822;DHT22;3956;50.558;9.678;2022-10-26T14:27:32;17.00;99.90
7822;DHT22;3956;50.558;9.678;2022-10-26T14:30:21;17.00;99.90
7822;DHT22;3956;50.558;9.678;2022-10-26T14:32:50;17.00;99.90
7822;DHT22;3956;50.558;9.678;2022-10-26T14:35:22;16.90;99.90
7822;DHT22;3956;50.558;9.678;2022-10-26T14:37:53;16.90;99.90
7822;DHT22;3956;50.558;9.678;2022-10-26T14:40:25;17.00;99.90
7822;DHT22;3956;50.558;9.678;2022-10-26T14:42:56;17.00;99.90
7822;DHT22;3956;50.558;9.678;2022-10-26T14:45:30;17.00;99.90
7822;DHT22;3956;50.558;9.678;2022-10-26T14:48:26;17.00;99.90
7822;DHT22;3956;50.558;9.678;2022-10-26T14:51:03;17.10;99.90
7822;DHT22;3956;50.558;9.678;2022-10-26T14:53:37;17.10;99.90
7822;DHT22;3956;50.558;9.678;2022-10-26T14:56:20;17.10;99.90
7822;DHT22;3956;50.558;9.678;2022-10-26T14:58:48;17.00;99.90
7822;DHT22;3956;50.558;9.678;2022-10-26T15:01:28;17.00;99.90
7822;DHT22;3956;50.558;9.678;2022-10-26T15:04:02;17.00;99.90
7822;DHT22;3956;50.558;9.678;2022-10-26T15:06:38;17.00;99.90
7822;DHT22;3956;50.558;9.678;2022-10-26T15:09:31;16.90;99.90
7822;DHT22;3956;50.558;9.678;2022-10-26T15:12:00;16.90;99.90
7822;DHT22;3956;50.558;9.678;2022-10-26T15:14:32;16.90;99.90
7822;DHT22;3956;50.558;9.678;2022-10-26T15:17:03;16.90;99.90
7822;DHT22;3956;50.558;9.678;2022-10-26T15:19:31;16.90;99.90
7822;DHT22;3956;50.558;9.678;2022-10-26T15:22:00;16.80;99.90
7822;DHT22;3956;50.558;9.678;2022-10-26T15:24:31;16.80;99.90
7822;DHT22;3956;50.558;9.678;2022-10-26T15:27:12;16.70;99.90
7822;DHT22;3956;50.558;9.678;2022-10-26T15:29:44;16.60;99.90
7822;DHT22;3956;50.558;9.678;2022-10-26T15:32:29;16.50;99.90
7822;DHT22;3956;50.558;9.678;2022-10-26T15:35:28;16.50;99.90
7822;DHT22;3956;50.558;9.678;2022-10-26T15:37:57;16.50;99.90
7822;DHT22;3956;50.558;9.678;2022-10-26T15:40:27;16.50;99.90
7822;DHT22;3956;50.558;9.678;2022-10-26T15:42:59;16.40;99.90
7822;DHT22;3956;50.558;9.678;2022-10-26T15:45:30;16.40;99.90
7822;DHT22;3956;50.558;9.678;2022-10-26T15:48:17;16.30;99.90
7822;DHT22;3956;50.558;9.678;2022-10-26T15:50:46;16.20;99.90
7822;DHT22;3956;50.558;9.678;2022-10-26T15:53:18;16.10;99.90
7822;DHT22;3956;50.558;9.678;2022-10-26T15:55:48;16.10;99.90
7822;DHT22;3956;50.558;9.678;2022-10-26T15:58:18;16.10;99.90
7822;DHT22;3956;50.558;9.678;2022-10-26T16:00:46;16.00;99.90
7822;DHT22;3956;50.558;9.678;2022-10-26T16:03:19;16.00;99.90
7822;DHT22;3956;50.558;9.678;2022-10-26T16:05:51;15.90;99.90
7822;DHT22;3956;50.558;9.678;2022-10-26T16:08:21;15.80;99.90
7822;DHT22;3956;50.558;9.678;2022-10-26T16:10:49;15.80;99.90
7822;DHT22;3956;50.558;9.678;2022-10-26T16:13:18;15.80;99.90
7822;DHT22;3956;50.558;9.678;2022-10-26T16:15:47;15.80;99.90
7822;DHT22;3956;50.558;9.678;2022-10-26T16:18:17;15.80;99.90
7822;DHT22;3956;50.558;9.678;2022-10-26T16:20:45;15.80;99.90
7822;DHT22;3956;50.558;9.678;2022-10-26T16:23:13;15.70;99.90
7822;DHT22;3956;50.558;9.678;2022-10-26T16:25:43;15.60;99.90
7822;DHT22;3956;50.558;9.678;2022-10-26T16:28:14;15.50;99.90
7822;DHT22;3956;50.558;9.678;2022-10-26T16:30:43;15.50;99.90
7822;DHT22;3956;50.558;9.678;2022-10-26T16:33:11;15.40;99.90
7822;DHT22;3956;50.558;9.678;2022-10-26T16:35:41;15.30;99.90
7822;DHT22;3956;50.558;9.678;2022-10-26T16:38:09;15.30;99.90
7822;DHT22;3956;50.558;9.678;2022-10-26T16:40:38;15.20;99.90
7822;DHT22;3956;50.558;9.678;2022-10-26T16:43:08;15.20;99.90
7822;DHT22;3956;50.558;9.678;2022-10-26T16:45:39;15.10;99.90
7822;DHT22;3956;50.558;9.678;2022-10-26T16:48:08;15.10;99.90
7822;DHT22;3956;50.558;9.678;2022-10-26T16:50:42;14.90;99.90
7822;DHT22;3956;50.558;9.678;2022-10-26T16:53:10;14.80;99.90
7822;DHT22;3956;50.558;9.678;2022-10-26T16:55:38;14.80;99.90
7822;DHT22;3956;50.558;9.678;2022-10-26T16:58:10;14.70;99.90
7822;DHT22;3956;50.558;9.678;2022-10-26T17:00:38;14.60;99.90
7822;DHT22;3956;50.558;9.678;2022-10-26T17:03:06;14.60;99.90
7822;DHT22;3956;50.558;9.678;2022-10-26T17:05:35;14.60;99.90
7822;DHT22;3956;50.558;9.678;2022-10-26T17:08:06;14.50;99.90
7822;DHT22;3956;50.558;9.678;2022-10-26T17:10:34;14.40;99.90